Contrarian — 2FAJ3 — position and weather

sailwx.info

Track history (hours):
 
Tides and Currents Weather Stations Pressure Air Temp Water Temp Dewpoint Dewpoint Depression Visibility Wind Speed Wind Dir Waves Ship Positions

Contrarian

Last reported at 2015-May-14 12:24 UTC. Time now 2015-May-24 05:08 UTC.
Position N 38°45' W 028°23'.
Warning: this ship's position is 9 days out of date.

Length 20 m.

Type: Sailing vessel. MMSI: 235089609.

Date/timePositionNaut miles runAvg speedWind from/ knotsBaromVisibWave heightAir tempDewpointWater temp
2015-May-14 12:24N 38°45' W 028°23'7 8.4
2015-May-14 11:33N 38°39' W 028°29'8 8.0
2015-May-14 10:33N 38°33' W 028°35'2 2.1
2015-May-14 09:27N 38°32' W 028°38'0 0.0
2015-May-14 08:27N 38°32' W 028°38'0 0.0
2015-May-12 09:21N 38°32' W 028°38'0 0.5
2015-May-12 08:33N 38°32' W 028°37'6 6.1
2015-May-12 07:33N 38°28' W 028°43'7 7.3
2015-May-12 06:33N 38°25' W 028°52'3 3.0
2015-May-12 05:32N 38°24' W 028°55'3 2.9
2015-May-12 04:33N 38°22' W 028°58'  
Track history (hours):
 
Tides and Currents Weather Stations Pressure Air Temp Water Temp Dewpoint Dewpoint Depression Visibility Wind Speed Wind Dir Waves Ship Positions

Contrarian

Last reported at 2015-May-14 12:24 UTC. Time now 2015-May-24 05:08 UTC.
Position N 38°45' W 028°23'.
Warning: this ship's position is 9 days out of date.

Length 20 m.

Type: Sailing vessel. MMSI: 235089609.

Date/timePositionNaut miles runAvg speedWind from/ knotsBaromVisibWave heightAir tempDewpointWater temp
2015-May-14 12:24N 38°45' W 028°23'7 8.4
2015-May-14 11:33N 38°39' W 028°29'8 8.0
2015-May-14 10:33N 38°33' W 028°35'2 2.1
2015-May-14 09:27N 38°32' W 028°38'0 0.0
2015-May-14 08:27N 38°32' W 028°38'0 0.0
2015-May-12 09:21N 38°32' W 028°38'0 0.5
2015-May-12 08:33N 38°32' W 028°37'6 6.1
2015-May-12 07:33N 38°28' W 028°43'7 7.3
2015-May-12 06:33N 38°25' W 028°52'3 3.0
2015-May-12 05:32N 38°24' W 028°55'3 2.9
2015-May-12 04:33N 38°22' W 028°58'  

Dump ship's entire track history